createdAt,value
2019-03-06T00:03:16.519Z,10.30
2019-03-06T00:08:21.970Z,10.34
2019-03-06T00:13:27.369Z,10.38
2019-03-06T00:18:32.859Z,10.41
2019-03-06T00:23:38.219Z,10.43
2019-03-06T00:28:43.616Z,10.40
2019-03-06T00:33:49.005Z,10.34
2019-03-06T00:38:54.390Z,10.34
2019-03-06T00:43:59.937Z,10.32
2019-03-06T00:49:05.509Z,10.31
2019-03-06T00:54:10.906Z,10.31
2019-03-06T00:59:16.293Z,10.28
2019-03-06T01:04:21.675Z,10.25
2019-03-06T01:09:27.052Z,10.24
2019-03-06T01:14:32.429Z,10.23
2019-03-06T01:19:37.805Z,10.20
2019-03-06T01:24:43.187Z,10.16
2019-03-06T01:29:48.576Z,10.11
2019-03-06T01:35:18.526Z,10.10
2019-03-06T01:40:45.625Z,10.11
2019-03-06T01:45:51.042Z,10.06
2019-03-06T01:50:56.395Z,10.04
2019-03-06T01:56:01.758Z,10.01
2019-03-06T02:01:07.147Z,10.01
2019-03-06T02:06:12.495Z,10.02
2019-03-06T02:11:17.915Z,10.02
2019-03-06T02:16:23.265Z,10.02
2019-03-06T02:21:28.678Z,10.01
2019-03-06T02:26:34.052Z,9.97
2019-03-06T02:31:39.410Z,9.92
2019-03-06T02:36:44.817Z,9.91
2019-03-06T02:41:50.259Z,9.92
2019-03-06T02:46:55.615Z,9.91
2019-03-06T02:52:00.990Z,9.91
2019-03-06T02:57:06.398Z,9.88
2019-03-06T03:02:20.159Z,9.86
2019-03-06T03:07:25.574Z,9.84
2019-03-06T03:12:31.093Z,9.83
2019-03-06T03:17:36.418Z,9.86
2019-03-06T03:22:41.779Z,9.93
2019-03-06T03:27:47.186Z,10.01
2019-03-06T03:32:52.562Z,10.11
2019-03-06T03:37:57.967Z,10.22
2019-03-06T03:43:03.342Z,10.30
2019-03-06T03:48:08.734Z,10.32
2019-03-06T03:53:14.105Z,10.25
2019-03-06T03:58:19.556Z,10.20
2019-03-06T04:03:25.086Z,10.15
2019-03-06T04:08:30.504Z,10.11
2019-03-06T04:13:35.863Z,10.08
2019-03-06T04:18:41.255Z,10.04
2019-03-06T04:23:46.650Z,10.00
2019-03-06T04:28:52.006Z,9.97
2019-03-06T04:33:57.415Z,9.97
2019-03-06T04:39:02.861Z,9.97
2019-03-06T04:44:08.193Z,9.97
2019-03-06T04:49:13.562Z,9.99
2019-03-06T04:54:18.963Z,10.02
2019-03-06T04:59:24.291Z,10.05
2019-03-06T05:04:29.769Z,10.02
2019-03-06T05:09:35.108Z,9.97
2019-03-06T05:14:40.483Z,9.91
2019-03-06T05:19:45.855Z,9.86
2019-03-06T05:24:51.254Z,9.79
2019-03-06T05:29:56.629Z,9.75
2019-03-06T05:35:09.473Z,9.67
2019-03-06T05:40:14.842Z,9.59
2019-03-06T05:45:20.280Z,9.52
2019-03-06T05:50:25.728Z,9.44
2019-03-06T05:55:31.137Z,9.39
2019-03-06T06:00:36.525Z,9.37
2019-03-06T06:05:41.861Z,9.40
2019-03-06T06:10:47.214Z,9.46
2019-03-06T06:15:52.537Z,9.56
2019-03-06T06:21:12.375Z,9.64
2019-03-06T06:26:17.812Z,9.73
2019-03-06T06:31:23.177Z,9.81
2019-03-06T06:36:28.538Z,9.89
2019-03-06T06:41:34.037Z,9.99
2019-03-06T06:46:39.504Z,10.15
2019-03-06T06:52:52.548Z,10.25
2019-03-06T06:58:56.235Z,10.32
2019-03-06T07:05:32.172Z,10.45
2019-03-06T07:10:56.552Z,10.61
2019-03-06T07:16:23.646Z,10.74
2019-03-06T07:21:38.485Z,10.87
2019-03-06T07:27:02.591Z,10.89
2019-03-06T07:32:25.405Z,10.88
2019-03-06T07:37:45.464Z,10.98
2019-03-06T07:43:04.238Z,11.17
2019-03-06T07:48:22.605Z,11.33
2019-03-06T07:54:19.396Z,11.49
2019-03-06T07:59:24.780Z,11.69
2019-03-06T08:04:32.889Z,11.80
2019-03-06T08:09:38.251Z,11.95
2019-03-06T08:15:05.425Z,12.14
2019-03-06T08:20:29.880Z,12.32
2019-03-06T08:25:48.182Z,12.49
2019-03-06T08:30:57.899Z,12.79
2019-03-06T08:36:03.348Z,13.16
2019-03-06T08:41:08.756Z,13.61
2019-03-06T08:46:36.389Z,14.22
2019-03-06T08:51:50.488Z,15.27
2019-03-06T08:57:14.864Z,15.89
2019-03-06T09:02:42.640Z,16.44
2019-03-06T09:08:06.916Z,16.46
2019-03-06T09:13:37.151Z,16.17
2019-03-06T09:19:19.588Z,16.11
2019-03-06T09:24:42.721Z,16.13
2019-03-06T09:29:58.507Z,16.08
2019-03-06T09:35:28.626Z,16.09
2019-03-06T09:40:55.714Z,15.64
2019-03-06T09:46:17.909Z,15.57
2019-03-06T09:51:43.869Z,15.75
2019-03-06T09:57:14.459Z,16.07
2019-03-06T10:02:45.202Z,16.30
2019-03-06T10:08:07.759Z,16.31
2019-03-06T10:13:27.787Z,16.31
2019-03-06T10:18:43.843Z,16.12
2019-03-06T10:23:49.211Z,15.82
2019-03-06T10:28:54.754Z,15.87
2019-03-06T10:34:00.085Z,15.97
2019-03-06T10:39:06.802Z,15.93
2019-03-06T10:44:12.208Z,16.00
2019-03-06T10:49:17.564Z,16.01
2019-03-06T10:54:22.941Z,16.01
2019-03-06T10:59:28.401Z,16.02
2019-03-06T11:04:47.472Z,15.94
2019-03-06T11:09:53.114Z,15.84
2019-03-06T11:14:58.607Z,15.68
2019-03-06T11:20:04.040Z,15.59
2019-03-06T11:25:10.052Z,15.43
2019-03-06T11:30:22.605Z,15.48
2019-03-06T11:35:28.288Z,15.64
2019-03-06T11:40:34.035Z,15.77
2019-03-06T11:45:40.240Z,15.85
2019-03-06T11:50:45.813Z,15.95
2019-03-06T11:55:51.277Z,15.97
2019-03-06T12:00:56.681Z,15.92
2019-03-06T12:06:02.053Z,15.96
2019-03-06T12:11:07.431Z,16.14
2019-03-06T12:16:12.828Z,16.32
2019-03-06T12:21:18.251Z,16.40
2019-03-06T12:26:23.631Z,16.47
2019-03-06T12:31:28.988Z,16.53
2019-03-06T12:36:36.137Z,16.60
2019-03-06T12:41:41.584Z,16.58
2019-03-06T12:46:51.130Z,16.50
2019-03-06T12:51:56.591Z,16.42
2019-03-06T12:57:02.114Z,16.35
2019-03-06T13:02:07.574Z,16.15
2019-03-06T13:07:12.998Z,15.91
2019-03-06T13:12:18.462Z,15.73
2019-03-06T13:17:24.987Z,15.69
2019-03-06T13:22:30.436Z,15.69
2019-03-06T13:27:35.802Z,15.70
2019-03-06T13:32:57.389Z,15.75
2019-03-06T13:38:02.815Z,15.75
2019-03-06T13:43:08.222Z,15.74
2019-03-06T13:48:13.652Z,15.76
2019-03-06T13:53:20.559Z,15.83
2019-03-06T13:58:26.025Z,15.81
2019-03-06T14:03:31.392Z,15.73
2019-03-06T14:08:36.977Z,15.72
2019-03-06T14:13:42.352Z,15.77
2019-03-06T14:18:47.742Z,15.77
2019-03-06T14:23:53.177Z,15.80
2019-03-06T14:28:58.546Z,15.81
2019-03-06T14:34:04.023Z,15.77
2019-03-06T14:39:24.231Z,15.74
2019-03-06T14:44:29.686Z,15.79
2019-03-06T14:49:35.120Z,15.83
2019-03-06T14:54:40.506Z,15.82
2019-03-06T14:59:45.878Z,15.83
2019-03-06T15:04:51.217Z,15.82
2019-03-06T15:09:56.612Z,15.83
2019-03-06T15:15:02.147Z,15.86
2019-03-06T15:20:09.421Z,15.90
2019-03-06T15:25:17.797Z,15.94
2019-03-06T15:30:23.183Z,16.00
2019-03-06T15:35:28.604Z,16.05
2019-03-06T15:40:34.403Z,16.11
2019-03-06T15:45:40.002Z,16.16
2019-03-06T15:50:45.433Z,16.20
2019-03-06T15:55:50.813Z,16.24
2019-03-06T16:00:56.167Z,16.24
2019-03-06T16:06:01.582Z,16.25
2019-03-06T16:11:07.128Z,16.26
2019-03-06T16:16:12.637Z,16.29
2019-03-06T16:21:18.694Z,16.30
2019-03-06T16:26:24.485Z,16.32
2019-03-06T16:31:29.907Z,16.31
2019-03-06T16:36:35.741Z,16.30
2019-03-06T16:41:41.581Z,16.28
2019-03-06T16:46:47.378Z,16.26
2019-03-06T16:51:52.995Z,16.23
2019-03-06T16:56:59.324Z,16.24
2019-03-06T17:02:04.916Z,16.28
2019-03-06T17:07:10.706Z,16.28
2019-03-06T17:12:18.618Z,16.27
2019-03-06T17:17:23.814Z,16.26
2019-03-06T17:22:29.246Z,16.23
2019-03-06T17:27:34.925Z,16.19
2019-03-06T17:32:52.916Z,16.16
2019-03-06T17:37:58.844Z,16.13
2019-03-06T17:43:04.667Z,16.11
2019-03-06T17:48:10.424Z,16.09
2019-03-06T17:53:15.861Z,16.12
2019-03-06T17:58:21.274Z,16.06
2019-03-06T18:03:54.543Z,15.98
2019-03-06T18:09:00.113Z,15.87
2019-03-06T18:14:05.626Z,15.77
2019-03-06T18:19:11.152Z,15.71
2019-03-06T18:24:16.753Z,15.65
2019-03-06T18:29:22.191Z,15.58
2019-03-06T18:34:29.209Z,15.52
2019-03-06T18:39:36.405Z,15.45
2019-03-06T18:44:41.857Z,15.36
2019-03-06T18:49:47.342Z,15.31
2019-03-06T18:54:53.004Z,15.26
2019-03-06T18:59:58.531Z,15.22
2019-03-06T19:05:04.027Z,15.18
2019-03-06T19:10:11.149Z,15.17
2019-03-06T19:15:18.724Z,15.16
2019-03-06T19:20:24.385Z,15.16
2019-03-06T19:25:31.281Z,15.13
2019-03-06T19:30:36.964Z,15.11
2019-03-06T19:35:42.628Z,15.06
2019-03-06T19:40:48.352Z,15.04
2019-03-06T19:45:53.849Z,15.03
2019-03-06T19:51:00.784Z,15.01
2019-03-06T19:56:06.320Z,15.00
2019-03-06T20:01:11.801Z,15.01
2019-03-06T20:06:26.604Z,15.01
2019-03-06T20:11:24.390Z,14.98
2019-03-06T20:16:30.023Z,14.97
2019-03-06T20:21:35.576Z,14.97
2019-03-06T20:26:41.067Z,14.98
2019-03-06T20:31:46.614Z,15.00
2019-03-06T20:36:52.294Z,15.01
2019-03-06T20:41:57.859Z,14.99
2019-03-06T20:47:03.471Z,14.93
2019-03-06T20:52:09.225Z,14.88
2019-03-06T20:57:14.682Z,14.84
2019-03-06T21:02:20.258Z,14.84
2019-03-06T21:07:25.991Z,14.85
2019-03-06T21:12:31.498Z,14.86
2019-03-06T21:17:37.112Z,14.86
2019-03-06T21:22:42.780Z,14.88
2019-03-06T21:27:48.302Z,14.87
2019-03-06T21:32:54.052Z,14.89
2019-03-06T21:37:59.510Z,14.91
2019-03-06T21:43:05.232Z,14.93
2019-03-06T21:48:10.818Z,14.95
2019-03-06T21:53:17.142Z,14.96
2019-03-06T21:58:22.573Z,14.98
2019-03-06T22:03:28.231Z,14.98
2019-03-06T22:08:33.615Z,14.95
2019-03-06T22:13:39.235Z,14.90
2019-03-06T22:18:45.001Z,14.87
2019-03-06T22:23:50.370Z,14.84
2019-03-06T22:28:55.760Z,14.83
2019-03-06T22:34:01.244Z,14.81
2019-03-06T22:39:07.530Z,14.79
2019-03-06T22:44:12.937Z,14.80
2019-03-06T22:49:18.394Z,14.80
2019-03-06T22:54:23.776Z,14.83
2019-03-06T22:59:29.480Z,14.85
2019-03-06T23:04:35.081Z,14.89
2019-03-06T23:09:40.520Z,14.90
2019-03-06T23:14:45.881Z,14.92
2019-03-06T23:19:52.672Z,14.93
2019-03-06T23:24:58.118Z,14.97
2019-03-06T23:30:03.529Z,14.98
2019-03-06T23:35:08.986Z,15.00
2019-03-06T23:40:14.377Z,14.98
2019-03-06T23:45:19.797Z,14.96
2019-03-06T23:50:25.178Z,14.93
2019-03-06T23:55:30.959Z,14.89
